Time;durP1;ratioP1;P1;durP2;ratioP2;P2;SDS_P1;SDS_P2;PMS_P1;PMS_P2;Temp;Humidity;BMP_temperature;BMP_pressure;BME280_temperature;BME280_humidity;BME280_pressure;Samples;Min_cycle;Max_cycle;Signal;HPM_P1;HPM_P2
2023/11/22 00:02:03;;;;;;;8.90;5.65;;;2.70;99.90;;;;;;5065316;28;20035;-80
2023/11/22 00:04:29;;;;;;;7.47;5.30;;;2.70;99.90;;;;;;5037665;28;20159;-81
2023/11/22 00:06:55;;;;;;;8.27;5.53;;;2.70;99.90;;;;;;5068890;28;20044;-80
2023/11/22 00:09:22;;;;;;;9.60;5.82;;;2.70;99.90;;;;;;5066875;28;20058;-80
2023/11/22 00:11:49;;;;;;;10.82;5.30;;;2.60;99.90;;;;;;5071157;28;20051;-80
2023/11/22 00:14:15;;;;;;;8.50;5.72;;;2.60;99.90;;;;;;5066157;28;20055;-78
2023/11/22 00:16:42;;;;;;;9.68;5.80;;;2.60;99.90;;;;;;5063003;28;20025;-79
2023/11/22 00:19:08;;;;;;;7.63;5.50;;;2.60;99.90;;;;;;5065594;28;20017;-79
2023/11/22 00:21:35;;;;;;;8.05;5.63;;;2.60;99.90;;;;;;5066364;28;20072;-79
2023/11/22 00:24:01;;;;;;;8.38;5.47;;;2.60;99.90;;;;;;5073742;28;20029;-78
2023/11/22 00:26:27;;;;;;;7.95;5.43;;;2.60;99.90;;;;;;5075702;28;20339;-79
2023/11/22 00:28:56;;;;;;;9.25;6.03;;;2.60;99.90;;;;;;5061758;28;20404;-78
2023/11/22 00:31:22;;;;;;;8.05;5.60;;;2.60;99.90;;;;;;5063937;28;20048;-78
2023/11/22 00:33:49;;;;;;;8.10;5.60;;;2.60;99.90;;;;;;5055885;28;20048;-78
2023/11/22 00:36:16;;;;;;;8.82;5.60;;;2.60;99.90;;;;;;5056531;28;20085;-78
2023/11/22 00:38:42;;;;;;;8.18;5.47;;;2.60;99.90;;;;;;5058775;28;20072;-81
2023/11/22 00:41:09;;;;;;;8.82;5.68;;;2.60;99.90;;;;;;5058413;28;20033;-80
2023/11/22 00:43:42;;;;;;;8.18;5.88;;;2.60;99.90;;;;;;5045703;28;20026;-79
2023/11/22 00:46:08;;;;;;;9.88;5.82;;;2.60;99.90;;;;;;5065952;28;20037;-79
2023/11/22 00:48:34;;;;;;;8.38;5.65;;;2.50;99.90;;;;;;5064960;28;20120;-79
2023/11/22 00:50:59;;;;;;;7.35;5.40;;;2.60;99.90;;;;;;5061831;28;20033;-79
2023/11/22 00:53:26;;;;;;;9.25;6.05;;;2.50;99.90;;;;;;5069136;28;20037;-79
2023/11/22 00:55:52;;;;;;;8.43;5.43;;;2.50;99.90;;;;;;5068417;28;20071;-79
2023/11/22 00:58:18;;;;;;;10.30;5.97;;;2.40;99.90;;;;;;5065327;28;20033;-79
2023/11/22 01:00:44;;;;;;;7.78;5.07;;;2.50;99.90;;;;;;5055663;28;20075;-79
2023/11/22 01:03:11;;;;;;;10.00;6.43;;;2.50;99.90;;;;;;5044497;28;20037;-79
2023/11/22 01:05:37;;;;;;;9.98;5.82;;;2.50;99.90;;;;;;5057403;28;20132;-79
2023/11/22 01:08:03;;;;;;;7.85;5.85;;;2.50;99.90;;;;;;5044216;28;20079;-78
2023/11/22 01:10:29;;;;;;;8.65;5.90;;;2.50;99.90;;;;;;5048074;28;20065;-79
2023/11/22 01:12:55;;;;;;;10.00;6.18;;;2.50;99.90;;;;;;5049565;28;20037;-79
2023/11/22 01:15:22;;;;;;;11.10;6.13;;;2.50;99.90;;;;;;5039864;28;20602;-79
2023/11/22 01:17:48;;;;;;;10.38;7.00;;;2.40;99.90;;;;;;5049677;28;20487;-81
2023/11/22 01:20:14;;;;;;;12.88;7.28;;;2.40;99.90;;;;;;5049178;28;20041;-79
2023/11/22 01:22:42;;;;;;;9.40;6.68;;;2.30;99.90;;;;;;5048628;28;20033;-80
2023/11/22 01:25:08;;;;;;;13.48;8.68;;;2.30;99.90;;;;;;5044964;28;20079;-80
2023/11/22 01:27:33;;;;;;;12.43;7.63;;;2.30;99.90;;;;;;5045497;28;20450;-80
2023/11/22 01:29:59;;;;;;;13.38;9.02;;;2.30;99.90;;;;;;5043629;28;20037;-80
2023/11/22 01:32:28;;;;;;;23.23;16.02;;;2.30;99.90;;;;;;5056141;28;20082;-79
2023/11/22 01:34:57;;;;;;;10.82;7.88;;;2.30;99.90;;;;;;5051558;28;20039;-80
2023/11/22 01:37:23;;;;;;;13.85;9.80;;;2.30;99.90;;;;;;5053020;28;20025;-79
2023/11/22 01:39:49;;;;;;;11.18;7.85;;;2.30;99.90;;;;;;5048392;28;20055;-80
2023/11/22 01:42:15;;;;;;;12.70;8.15;;;2.30;99.90;;;;;;5044904;28;20086;-81
2023/11/22 01:44:41;;;;;;;14.10;8.45;;;2.30;99.90;;;;;;5051964;28;20034;-80
2023/11/22 01:47:08;;;;;;;9.02;6.32;;;2.30;99.90;;;;;;5042453;28;20702;-79
2023/11/22 01:49:35;;;;;;;10.05;6.90;;;2.30;99.90;;;;;;5067989;28;20028;-80
2023/11/22 01:52:03;;;;;;;10.07;6.70;;;2.30;99.90;;;;;;5038618;28;20056;-79
2023/11/22 01:54:31;;;;;;;10.13;6.38;;;2.30;99.90;;;;;;5046299;28;20042;-80
2023/11/22 01:56:57;;;;;;;8.80;6.32;;;2.40;99.90;;;;;;5049750;28;20064;-79
2023/11/22 01:59:26;;;;;;;10.73;6.45;;;2.40;99.90;;;;;;5046255;28;20052;-78
2023/11/22 02:01:53;;;;;;;10.10;5.97;;;2.40;99.90;;;;;;5047055;28;20086;-79
2023/11/22 02:04:19;;;;;;;9.60;5.97;;;2.40;99.90;;;;;;5050486;28;20029;-80
2023/11/22 02:06:46;;;;;;;8.23;5.72;;;2.40;99.90;;;;;;5053753;28;20036;-79
2023/11/22 02:09:30;;;;;;;10.65;5.72;;;2.30;99.90;;;;;;5047042;28;20048;-78
2023/11/22 02:11:57;;;;;;;7.45;5.68;;;2.30;99.90;;;;;;5052190;28;20033;-78
2023/11/22 02:14:23;;;;;;;8.27;5.80;;;2.30;99.90;;;;;;5050114;28;20041;-78
2023/11/22 02:16:50;;;;;;;9.00;6.00;;;2.30;99.90;;;;;;5046389;28;20033;-79
2023/11/22 02:19:16;;;;;;;9.55;6.32;;;2.30;99.90;;;;;;5046101;28;20021;-78
2023/11/22 02:21:43;;;;;;;10.65;6.70;;;2.30;99.90;;;;;;5051995;28;20036;-79
2023/11/22 02:24:10;;;;;;;10.40;6.30;;;2.20;99.90;;;;;;5042740;28;20032;-79
2023/11/22 02:26:37;;;;;;;9.88;6.28;;;2.20;99.90;;;;;;5053170;28;20082;-79
2023/11/22 02:29:06;;;;;;;10.27;6.78;;;2.20;99.90;;;;;;5045846;28;20112;-80
2023/11/22 02:31:33;;;;;;;10.13;6.63;;;2.20;99.90;;;;;;5034420;28;20056;-79
2023/11/22 02:34:00;;;;;;;10.52;6.68;;;2.20;99.90;;;;;;5038250;28;20040;-79
2023/11/22 02:36:26;;;;;;;11.48;6.82;;;2.20;99.90;;;;;;5057900;28;20114;-79
2023/11/22 02:38:52;;;;;;;10.45;6.47;;;2.20;99.90;;;;;;5048977;28;20040;-79
2023/11/22 02:41:18;;;;;;;10.10;7.05;;;2.10;99.90;;;;;;5056799;28;20058;-78
2023/11/22 02:43:45;;;;;;;11.27;7.32;;;2.10;99.90;;;;;;5037533;28;20029;-79
2023/11/22 02:46:12;;;;;;;13.80;7.72;;;2.10;99.90;;;;;;5047513;28;20037;-78
2023/11/22 02:48:37;;;;;;;11.15;7.07;;;2.10;99.90;;;;;;5048339;28;20044;-78
2023/11/22 02:51:06;;;;;;;13.70;7.43;;;2.10;99.90;;;;;;5053676;28;20036;-79
2023/11/22 02:53:32;;;;;;;13.98;8.20;;;2.10;99.90;;;;;;5034733;28;20381;-79
2023/11/22 02:56:01;;;;;;;12.80;8.00;;;2.10;99.90;;;;;;5037480;28;20065;-78
2023/11/22 02:58:30;;;;;;;13.50;7.95;;;2.10;99.90;;;;;;5046467;28;20164;-77
2023/11/22 03:00:57;;;;;;;13.55;8.93;;;2.10;99.90;;;;;;5043520;28;20033;-78
2023/11/22 03:03:23;;;;;;;14.10;8.25;;;2.10;99.90;;;;;;5056040;28;20044;-78
2023/11/22 03:05:50;;;;;;;14.25;8.35;;;2.10;99.90;;;;;;5053360;28;20045;-77
2023/11/22 03:08:16;;;;;;;14.23;8.30;;;2.10;99.90;;;;;;5044172;28;20033;-79
2023/11/22 03:10:42;;;;;;;15.05;9.00;;;2.10;99.90;;;;;;5047591;28;20033;-79
2023/11/22 03:13:08;;;;;;;15.23;9.35;;;2.00;99.90;;;;;;5042329;28;20071;-78
2023/11/22 03:15:35;;;;;;;14.40;8.68;;;2.10;99.90;;;;;;5043834;28;20059;-79
2023/11/22 03:18:01;;;;;;;13.38;8.15;;;2.00;99.90;;;;;;5046064;28;20033;-78
2023/11/22 03:20:27;;;;;;;13.98;8.77;;;2.00;99.90;;;;;;5049027;28;20017;-78
2023/11/22 03:22:53;;;;;;;12.77;8.27;;;2.00;99.90;;;;;;5046467;28;20518;-78
2023/11/22 03:25:19;;;;;;;14.68;8.60;;;2.00;99.90;;;;;;5046186;28;20061;-79
2023/11/22 03:27:47;;;;;;;15.10;9.10;;;2.00;99.90;;;;;;5046452;28;20061;-79
2023/11/22 03:30:14;;;;;;;15.10;8.95;;;1.90;99.90;;;;;;5050432;28;20112;-79
2023/11/22 03:32:41;;;;;;;13.70;8.98;;;1.90;99.90;;;;;;5046430;28;20037;-79
2023/11/22 03:35:08;;;;;;;15.50;9.35;;;1.90;99.90;;;;;;5048222;28;20594;-78
2023/11/22 03:37:34;;;;;;;15.02;8.70;;;1.80;99.90;;;;;;5052716;28;20487;-78
2023/11/22 03:40:00;;;;;;;14.60;9.30;;;1.80;99.90;;;;;;5036564;28;21158;-79
2023/11/22 03:42:29;;;;;;;14.93;8.75;;;1.80;99.90;;;;;;5049040;28;20036;-79
2023/11/22 03:44:55;;;;;;;15.95;9.57;;;1.80;99.90;;;;;;5055596;28;20032;-80
2023/11/22 03:47:21;;;;;;;16.80;9.93;;;1.80;99.90;;;;;;5039202;28;20398;-78
2023/11/22 03:49:47;;;;;;;15.10;9.45;;;1.70;99.90;;;;;;5046774;28;20108;-78
2023/11/22 03:52:14;;;;;;;15.75;9.57;;;1.70;99.90;;;;;;5056710;28;20498;-78
2023/11/22 03:54:40;;;;;;;14.63;9.77;;;1.70;99.90;;;;;;5047264;28;20063;-78
2023/11/22 03:57:06;;;;;;;14.05;9.18;;;1.70;99.90;;;;;;5047332;28;20032;-78
2023/11/22 03:59:31;;;;;;;15.38;9.95;;;1.70;99.90;;;;;;5042460;28;20033;-78
2023/11/22 04:01:57;;;;;;;13.90;8.77;;;1.70;99.90;;;;;;5046349;28;21114;-78
2023/11/22 04:04:30;;;;;;;16.70;10.05;;;1.70;99.90;;;;;;5044524;28;20063;-79
2023/11/22 04:06:59;;;;;;;19.63;10.68;;;1.70;99.90;;;;;;5052322;28;20041;-81
2023/11/22 04:09:25;;;;;;;17.55;10.18;;;1.60;99.90;;;;;;5053615;28;20033;-81
2023/11/22 04:11:51;;;;;;;14.88;9.95;;;1.70;99.90;;;;;;5056927;28;20033;-81
2023/11/22 04:14:18;;;;;;;15.80;9.75;;;1.70;99.90;;;;;;5036950;28;20033;-81
2023/11/22 04:16:44;;;;;;;15.32;9.65;;;1.60;99.90;;;;;;5045524;28;20547;-80
2023/11/22 04:19:10;;;;;;;14.80;9.27;;;1.60;99.90;;;;;;5059727;28;20032;-80
2023/11/22 04:21:36;;;;;;;17.70;10.82;;;1.60;99.90;;;;;;5061624;28;20033;-82
2023/11/22 04:24:02;;;;;;;16.00;9.48;;;1.60;99.90;;;;;;5051795;28;20666;-81
2023/11/22 04:26:27;;;;;;;15.38;10.40;;;1.60;99.90;;;;;;5048656;28;20515;-82
2023/11/22 04:28:53;;;;;;;16.23;9.90;;;1.70;99.90;;;;;;5057995;28;20028;-79
2023/11/22 04:31:19;;;;;;;15.48;10.00;;;1.70;99.90;;;;;;5052248;28;20078;-80
2023/11/22 04:33:45;;;;;;;14.75;9.10;;;1.70;99.90;;;;;;5048834;28;20037;-80
2023/11/22 04:36:11;;;;;;;14.45;9.00;;;1.60;99.90;;;;;;5057542;28;20039;-80
2023/11/22 04:38:56;;;;;;;16.55;10.05;;;1.60;99.90;;;;;;5051259;28;20091;-81
2023/11/22 04:41:22;;;;;;;15.60;9.00;;;1.60;99.90;;;;;;5046919;28;20029;-81
2023/11/22 04:43:48;;;;;;;15.98;9.93;;;1.60;99.90;;;;;;5049430;28;20044;-81
2023/11/22 04:46:14;;;;;;;14.32;9.00;;;1.60;99.90;;;;;;5051585;28;20021;-79
2023/11/22 04:48:41;;;;;;;17.20;10.00;;;1.60;99.90;;;;;;5042125;28;20078;-80
2023/11/22 04:51:06;;;;;;;17.17;10.20;;;1.60;99.90;;;;;;5050081;28;20082;-78
2023/11/22 04:53:32;;;;;;;17.95;10.63;;;1.60;99.90;;;;;;5046410;28;20089;-79
2023/11/22 04:55:59;;;;;;;18.70;11.10;;;1.60;99.90;;;;;;5048230;28;20036;-79
2023/11/22 04:58:24;;;;;;;17.25;10.38;;;1.60;99.90;;;;;;5040154;28;20377;-80
2023/11/22 05:00:50;;;;;;;18.55;10.88;;;1.50;99.90;;;;;;5049363;28;20044;-80
2023/11/22 05:03:16;;;;;;;16.50;9.70;;;1.50;99.90;;;;;;5044429;28;20025;-79
2023/11/22 05:05:41;;;;;;;17.63;10.52;;;1.40;99.90;;;;;;5047461;28;20043;-79
2023/11/22 05:08:07;;;;;;;18.88;10.90;;;1.40;99.90;;;;;;5043445;28;20037;-79
2023/11/22 05:10:33;;;;;;;16.95;11.27;;;1.40;99.90;;;;;;5048487;28;20040;-79
2023/11/22 05:13:00;;;;;;;16.77;10.35;;;1.30;99.90;;;;;;5039139;28;20084;-78
2023/11/22 05:15:27;;;;;;;17.63;10.55;;;1.30;99.90;;;;;;5064348;28;20747;-79
2023/11/22 05:17:53;;;;;;;16.75;9.68;;;1.30;99.90;;;;;;5054588;28;20131;-79
2023/11/22 05:20:19;;;;;;;17.85;10.30;;;1.30;99.90;;;;;;5047307;28;20039;-79
2023/11/22 05:22:45;;;;;;;18.65;10.88;;;1.30;99.90;;;;;;5041371;28;20507;-79
2023/11/22 05:25:10;;;;;;;18.45;10.63;;;1.30;99.90;;;;;;5058926;28;20449;-80
2023/11/22 05:27:36;;;;;;;18.98;10.45;;;1.30;99.90;;;;;;5051574;28;20036;-78
2023/11/22 05:30:04;;;;;;;20.65;11.35;;;1.30;99.90;;;;;;5055581;28;20056;-78
2023/11/22 05:32:31;;;;;;;20.17;12.02;;;1.30;99.90;;;;;;5045331;28;20037;-80
2023/11/22 05:34:56;;;;;;;21.65;12.30;;;1.30;99.90;;;;;;5045946;28;20041;-77
2023/11/22 05:37:22;;;;;;;22.23;13.10;;;1.30;99.90;;;;;;5050483;28;20021;-80
2023/11/22 05:39:48;;;;;;;19.52;11.95;;;1.30;99.90;;;;;;5049083;28;20048;-80
2023/11/22 05:42:14;;;;;;;22.52;13.00;;;1.30;99.90;;;;;;5056522;28;20027;-79
2023/11/22 05:44:39;;;;;;;21.92;12.07;;;1.30;99.90;;;;;;5047638;28;20037;-77
2023/11/22 05:47:06;;;;;;;19.45;12.45;;;1.40;99.90;;;;;;5052689;28;20033;-80
2023/11/22 05:49:32;;;;;;;20.05;11.43;;;1.40;99.90;;;;;;5052178;28;20115;-80
2023/11/22 05:51:58;;;;;;;20.95;11.85;;;1.40;99.90;;;;;;5046886;28;20068;-80
2023/11/22 05:54:24;;;;;;;20.92;12.43;;;1.40;99.90;;;;;;5053374;28;20171;-79
2023/11/22 05:56:50;;;;;;;25.27;12.98;;;1.40;99.90;;;;;;5052540;28;20049;-80
2023/11/22 05:59:16;;;;;;;20.75;12.38;;;1.30;99.90;;;;;;5049483;28;20104;-80
2023/11/22 06:01:41;;;;;;;22.27;12.50;;;1.30;99.90;;;;;;5047986;28;20045;-77
2023/11/22 06:04:09;;;;;;;19.42;11.77;;;1.30;99.90;;;;;;5045315;28;20033;-78
2023/11/22 06:06:36;;;;;;;18.95;11.57;;;1.40;99.90;;;;;;5052074;28;20564;-79
2023/11/22 06:09:01;;;;;;;20.35;11.68;;;1.30;99.90;;;;;;5040397;28;20036;-77
2023/11/22 06:11:27;;;;;;;19.58;11.23;;;1.30;99.90;;;;;;5034729;28;20025;-80
2023/11/22 06:13:53;;;;;;;25.65;12.27;;;1.30;99.90;;;;;;5046401;28;20104;-79
2023/11/22 06:16:18;;;;;;;21.50;12.15;;;1.30;99.90;;;;;;5057258;28;20549;-79
2023/11/22 06:18:44;;;;;;;19.77;11.13;;;1.40;99.90;;;;;;5052767;28;20031;-79
2023/11/22 06:21:10;;;;;;;22.77;11.30;;;1.40;99.90;;;;;;5044374;28;20033;-77
2023/11/22 06:23:36;;;;;;;20.58;11.88;;;1.40;99.90;;;;;;5049552;28;20037;-78
2023/11/22 06:26:02;;;;;;;24.85;13.45;;;1.30;99.90;;;;;;5055720;28;20025;-78
2023/11/22 06:28:28;;;;;;;20.73;11.63;;;1.30;99.90;;;;;;5043184;28;20357;-79
2023/11/22 06:30:54;;;;;;;20.60;11.40;;;1.30;99.90;;;;;;5060184;28;20044;-78
2023/11/22 06:33:20;;;;;;;22.05;11.68;;;1.30;99.90;;;;;;5050520;28;20032;-78
2023/11/22 06:35:46;;;;;;;17.67;10.95;;;1.20;99.90;;;;;;5027277;28;20033;-79
2023/11/22 06:38:11;;;;;;;17.67;10.43;;;1.30;99.90;;;;;;5058832;28;20052;-79
2023/11/22 06:40:37;;;;;;;18.83;11.13;;;1.20;99.90;;;;;;5056438;28;20583;-81
2023/11/22 06:43:06;;;;;;;18.98;11.30;;;1.20;99.90;;;;;;5048738;28;20050;-80
2023/11/22 06:45:32;;;;;;;21.88;11.38;;;1.20;99.90;;;;;;5052842;28;20032;-79
2023/11/22 06:47:58;;;;;;;20.58;10.85;;;1.20;99.90;;;;;;5045129;28;20708;-81
2023/11/22 06:50:24;;;;;;;17.52;10.90;;;1.10;99.90;;;;;;5052260;28;20438;-80
2023/11/22 06:52:52;;;;;;;17.63;10.55;;;1.10;99.90;;;;;;5063636;28;20056;-79
2023/11/22 06:55:18;;;;;;;17.98;10.18;;;1.10;99.90;;;;;;5051095;28;20037;-80
2023/11/22 06:57:44;;;;;;;18.27;10.60;;;1.10;99.90;;;;;;5055706;28;20116;-80
2023/11/22 07:00:10;;;;;;;14.73;9.25;;;1.10;99.90;;;;;;5051515;28;20091;-79
2023/11/22 07:02:36;;;;;;;15.40;9.43;;;1.10;99.90;;;;;;5046713;28;20041;-79
2023/11/22 07:05:03;;;;;;;16.80;10.10;;;1.10;99.90;;;;;;5043322;28;20021;-79
2023/11/22 07:07:29;;;;;;;19.90;9.80;;;1.10;99.90;;;;;;5056253;28;20141;-76
2023/11/22 07:09:58;;;;;;;16.48;8.80;;;1.00;99.90;;;;;;5049464;28;20048;-78
2023/11/22 07:12:26;;;;;;;15.07;9.35;;;1.00;99.90;;;;;;5049096;28;20487;-80
2023/11/22 07:14:52;;;;;;;13.23;8.25;;;1.00;99.90;;;;;;5044024;28;20041;-80
2023/11/22 07:17:18;;;;;;;13.00;8.32;;;1.00;99.90;;;;;;5051768;28;20025;-80
2023/11/22 07:19:48;;;;;;;12.55;7.72;;;1.00;99.90;;;;;;5050566;28;20465;-78
2023/11/22 07:22:17;;;;;;;13.63;7.95;;;0.90;99.90;;;;;;5055008;28;20627;-78
2023/11/22 07:24:43;;;;;;;13.60;8.63;;;0.90;99.90;;;;;;5050699;28;20044;-81
2023/11/22 07:27:12;;;;;;;12.13;8.38;;;0.90;99.90;;;;;;5046857;28;20033;-79
2023/11/22 07:29:41;;;;;;;14.27;7.80;;;0.90;99.90;;;;;;5053302;28;20033;-79
2023/11/22 07:32:11;;;;;;;11.50;7.45;;;0.90;99.90;;;;;;5058196;28;20040;-79
2023/11/22 07:34:42;;;;;;;13.40;8.52;;;1.00;99.90;;;;;;5054544;28;20033;-79
2023/11/22 07:37:08;;;;;;;12.85;8.02;;;0.90;99.90;;;;;;5043552;28;20108;-78
2023/11/22 07:39:38;;;;;;;14.25;7.55;;;0.90;99.90;;;;;;5052300;28;20047;-78
2023/11/22 07:42:07;;;;;;;12.05;8.25;;;1.00;99.90;;;;;;5049651;28;20033;-78
2023/11/22 07:44:35;;;;;;;14.10;8.27;;;1.00;99.90;;;;;;5045611;28;20038;-78
2023/11/22 07:47:02;;;;;;;14.80;7.85;;;0.90;99.90;;;;;;5043106;28;20043;-79
2023/11/22 07:49:28;;;;;;;13.20;8.23;;;0.90;99.90;;;;;;5043670;28;20036;-79
2023/11/22 07:51:56;;;;;;;14.65;8.38;;;1.00;99.90;;;;;;5048143;28;20076;-79
2023/11/22 07:54:22;;;;;;;12.27;7.60;;;1.00;99.90;;;;;;5046833;28;20487;-79
2023/11/22 07:56:49;;;;;;;12.98;7.60;;;1.00;99.90;;;;;;5044154;28;20021;-80
2023/11/22 07:59:15;;;;;;;14.63;8.30;;;1.00;99.90;;;;;;5046751;28;20018;-78
2023/11/22 08:01:45;;;;;;;13.35;7.63;;;1.00;99.90;;;;;;5050089;28;20440;-79
2023/11/22 08:04:10;;;;;;;13.98;8.20;;;0.90;99.90;;;;;;5048435;28;20038;-78
2023/11/22 08:06:36;;;;;;;12.38;7.95;;;0.90;99.90;;;;;;5054136;28;20402;-78
2023/11/22 08:09:04;;;;;;;13.90;8.00;;;0.90;99.90;;;;;;5050078;28;20506;-79
2023/11/22 08:11:31;;;;;;;14.30;7.90;;;0.90;99.90;;;;;;5055878;28;20112;-78
2023/11/22 08:14:15;;;;;;;14.35;8.27;;;1.00;99.90;;;;;;5045173;28;20051;-77
2023/11/22 08:16:42;;;;;;;14.48;7.55;;;0.90;99.90;;;;;;5057054;28;20033;-77
2023/11/22 08:19:09;;;;;;;12.10;8.25;;;1.00;99.90;;;;;;5054116;28;20036;-78
2023/11/22 08:21:36;;;;;;;12.85;8.55;;;1.00;99.90;;;;;;5049717;28;20036;-76
2023/11/22 08:24:03;;;;;;;13.25;8.32;;;1.00;99.90;;;;;;5042079;28;20037;-77
2023/11/22 08:26:28;;;;;;;14.63;8.52;;;1.10;99.90;;;;;;5048767;28;20040;-77
2023/11/22 08:28:55;;;;;;;13.70;8.10;;;1.00;99.90;;;;;;5044004;28;20028;-77
2023/11/22 08:31:21;;;;;;;13.10;8.20;;;1.00;99.90;;;;;;5041481;28;20084;-77
2023/11/22 08:33:47;;;;;;;14.45;9.15;;;1.10;99.90;;;;;;5036385;28;20061;-78
2023/11/22 08:36:12;;;;;;;15.52;8.80;;;1.00;99.90;;;;;;5042135;28;20021;-77
2023/11/22 08:38:43;;;;;;;15.15;9.73;;;1.00;99.90;;;;;;5048711;28;20032;-77
2023/11/22 08:41:13;;;;;;;14.48;8.80;;;1.10;99.90;;;;;;5039611;28;20057;-77
2023/11/22 08:43:39;;;;;;;13.80;8.77;;;1.10;99.90;;;;;;5050295;28;20033;-78
2023/11/22 08:46:06;;;;;;;15.70;10.07;;;1.10;99.90;;;;;;5042352;28;20029;-77
2023/11/22 08:48:33;;;;;;;18.55;9.75;;;1.10;99.90;;;;;;5034065;28;20037;-77
2023/11/22 08:50:58;;;;;;;14.68;9.18;;;1.20;99.90;;;;;;5034782;28;20086;-77
2023/11/22 08:53:24;;;;;;;16.35;9.90;;;1.20;99.90;;;;;;5047823;28;20040;-77
2023/11/22 08:55:50;;;;;;;16.30;9.98;;;1.20;99.90;;;;;;5045244;28;20047;-77
2023/11/22 08:58:16;;;;;;;19.60;10.43;;;1.10;99.90;;;;;;5035432;28;20108;-76
2023/11/22 09:00:44;;;;;;;17.45;10.60;;;1.20;99.90;;;;;;5040748;28;20057;-76
2023/11/22 09:03:12;;;;;;;19.17;10.13;;;1.10;99.90;;;;;;5037501;28;20035;-77
2023/11/22 09:05:46;;;;;;;14.52;9.20;;;1.20;99.90;;;;;;5045985;28;20071;-76
2023/11/22 09:08:14;;;;;;;19.02;10.75;;;1.20;99.90;;;;;;5042036;28;20094;-77
2023/11/22 09:10:41;;;;;;;17.30;10.50;;;1.10;99.90;;;;;;5044670;28;20045;-78
2023/11/22 09:13:07;;;;;;;17.20;10.18;;;1.10;99.90;;;;;;5039733;28;20032;-77
2023/11/22 09:15:33;;;;;;;14.63;9.77;;;1.20;99.90;;;;;;5044610;28;20036;-78
2023/11/22 09:17:59;;;;;;;16.65;10.40;;;1.30;99.90;;;;;;5051202;28;20049;-79
2023/11/22 09:20:25;;;;;;;15.38;9.35;;;1.20;99.90;;;;;;5047417;28;20075;-78
2023/11/22 09:22:52;;;;;;;14.00;9.25;;;1.20;99.90;;;;;;5045012;28;20446;-78
2023/11/22 09:25:26;;;;;;;15.68;9.15;;;1.10;99.90;;;;;;5040375;28;20041;-78
2023/11/22 09:27:58;;;;;;;15.30;9.65;;;1.20;99.90;;;;;;5039214;28;20358;-78
2023/11/22 09:30:32;;;;;;;16.85;9.40;;;1.20;99.90;;;;;;5045974;28;20115;-79
2023/11/22 09:33:01;;;;;;;14.85;8.88;;;1.20;99.90;;;;;;5045007;28;20028;-78
2023/11/22 09:35:29;;;;;;;16.08;9.55;;;1.20;99.90;;;;;;5054378;28;20044;-80
2023/11/22 09:37:55;;;;;;;17.02;10.05;;;1.30;99.90;;;;;;5044281;28;20082;-77
2023/11/22 09:40:22;;;;;;;11.95;8.18;;;1.20;99.90;;;;;;5047366;28;20024;-78
2023/11/22 09:42:51;;;;;;;14.20;8.77;;;1.20;99.90;;;;;;5045045;28;20087;-78
2023/11/22 09:45:21;;;;;;;13.23;8.25;;;1.20;99.90;;;;;;5039751;28;20056;-78
2023/11/22 09:47:47;;;;;;;11.38;8.32;;;1.20;99.90;;;;;;5036716;28;20128;-78
2023/11/22 09:50:23;;;;;;;14.18;8.35;;;1.10;99.90;;;;;;5036128;28;20726;-78
2023/11/22 09:52:53;;;;;;;13.02;8.23;;;1.10;99.90;;;;;;5037596;28;20033;-77
2023/11/22 09:55:22;;;;;;;13.30;8.25;;;1.20;99.90;;;;;;5038668;28;20031;-77
2023/11/22 09:57:48;;;;;;;12.55;7.82;;;1.20;99.90;;;;;;5034550;28;20036;-78
2023/11/22 10:00:18;;;;;;;12.32;7.55;;;1.30;99.90;;;;;;5035058;28;20446;-77
2023/11/22 10:02:45;;;;;;;11.35;7.90;;;1.20;99.90;;;;;;5041687;28;20063;-77
2023/11/22 10:05:11;;;;;;;14.35;7.90;;;1.20;99.90;;;;;;5031506;28;20022;-77
2023/11/22 10:07:38;;;;;;;11.05;7.57;;;1.20;99.90;;;;;;5037939;28;20047;-77
2023/11/22 10:10:05;;;;;;;13.07;8.00;;;1.20;99.90;;;;;;5038588;28;20403;-78
2023/11/22 10:12:31;;;;;;;11.80;6.85;;;1.30;99.90;;;;;;5040319;28;20120;-77
2023/11/22 10:15:18;;;;;;;13.57;7.22;;;1.30;99.90;;;;;;5034004;28;20387;-76
2023/11/22 10:17:55;;;;;;;10.02;6.55;;;1.30;99.90;;;;;;5042485;28;20032;-77
2023/11/22 10:20:34;;;;;;;10.57;6.78;;;1.40;99.90;;;;;;5043448;28;20048;-77
2023/11/22 10:23:00;;;;;;;10.02;6.30;;;1.40;99.90;;;;;;5042649;28;20041;-77
2023/11/22 10:25:26;;;;;;;8.93;5.28;;;1.40;99.90;;;;;;5042718;28;20033;-77
2023/11/22 10:27:53;;;;;;;9.68;6.00;;;1.40;99.90;;;;;;5043756;28;20098;-77
2023/11/22 10:30:19;;;;;;;12.15;7.22;;;1.40;99.90;;;;;;5040456;28;20036;-77
2023/11/22 10:32:45;;;;;;;11.18;7.35;;;1.30;99.90;;;;;;5038324;28;20049;-77
2023/11/22 10:35:14;;;;;;;9.50;5.90;;;1.40;99.90;;;;;;5042856;28;20690;-76
2023/11/22 10:37:44;;;;;;;9.15;6.43;;;1.30;99.90;;;;;;5043971;28;20033;-76
2023/11/22 10:40:12;;;;;;;9.10;5.85;;;1.30;99.90;;;;;;5039196;28;20036;-77
2023/11/22 10:42:41;;;;;;;12.00;6.47;;;1.30;99.90;;;;;;5041868;28;20099;-77
2023/11/22 10:45:08;;;;;;;8.10;4.75;;;1.30;99.90;;;;;;5034197;28;20014;-77
2023/11/22 10:47:42;;;;;;;9.52;5.65;;;1.30;99.90;;;;;;5046607;28;20044;-77
2023/11/22 10:50:10;;;;;;;8.95;6.05;;;1.30;99.90;;;;;;5038653;28;20037;-78
2023/11/22 10:52:36;;;;;;;10.35;6.63;;;1.40;99.90;;;;;;5035729;28;20554;-78
2023/11/22 10:55:04;;;;;;;8.40;5.60;;;1.30;99.90;;;;;;5040247;28;20048;-77
2023/11/22 10:57:39;;;;;;;9.68;5.97;;;1.40;99.90;;;;;;5035891;28;20032;-76
2023/11/22 11:00:07;;;;;;;11.57;6.88;;;1.40;99.90;;;;;;5032520;28;20429;-78
2023/11/22 11:02:40;;;;;;;11.65;6.53;;;1.40;99.90;;;;;;5045118;28;20180;-77
2023/11/22 11:05:17;;;;;;;10.32;6.20;;;1.40;99.90;;;;;;5032284;28;20537;-77
2023/11/22 11:07:51;;;;;;;9.93;6.47;;;1.40;99.90;;;;;;5046994;28;20086;-77
2023/11/22 11:10:20;;;;;;;11.95;7.35;;;1.40;99.90;;;;;;5039954;28;20108;-77
2023/11/22 11:12:46;;;;;;;10.82;7.50;;;1.50;99.90;;;;;;5038408;28;20040;-78
2023/11/22 11:15:13;;;;;;;10.30;6.63;;;1.50;99.90;;;;;;5037133;28;20079;-77
2023/11/22 11:17:39;;;;;;;10.80;6.97;;;1.50;99.90;;;;;;5046982;28;20705;-77
2023/11/22 11:20:11;;;;;;;11.85;6.88;;;1.50;99.90;;;;;;5042434;28;20033;-77
2023/11/22 11:22:37;;;;;;;12.18;7.10;;;1.50;99.90;;;;;;5042249;28;20044;-77
2023/11/22 11:25:05;;;;;;;12.55;7.15;;;1.60;99.90;;;;;;5036814;28;20039;-77
2023/11/22 11:27:41;;;;;;;10.88;6.63;;;1.60;99.90;;;;;;5036350;28;20549;-78
2023/11/22 11:30:32;;;;;;;11.73;6.75;;;1.60;99.90;;;;;;5033139;28;20036;-78
2023/11/22 11:32:58;;;;;;;12.00;6.80;;;1.70;99.90;;;;;;5038387;28;20048;-78
2023/11/22 11:35:41;;;;;;;9.73;6.65;;;1.70;99.90;;;;;;5043326;28;20025;-77
2023/11/22 11:38:09;;;;;;;10.70;7.10;;;1.70;99.90;;;;;;5038793;28;20030;-79
2023/11/22 11:40:36;;;;;;;11.95;7.80;;;1.70;99.90;;;;;;5053769;28;20338;-78
2023/11/22 11:43:02;;;;;;;12.10;6.90;;;1.70;99.90;;;;;;5048778;28;20040;-77
2023/11/22 11:45:28;;;;;;;13.05;7.45;;;1.70;99.90;;;;;;5050512;28;20048;-78
2023/11/22 11:47:54;;;;;;;13.70;7.53;;;1.70;99.90;;;;;;5037692;28;20043;-77
2023/11/22 11:50:22;;;;;;;11.90;7.50;;;1.70;99.90;;;;;;5037213;28;20120;-78
2023/11/22 11:52:47;;;;;;;13.90;8.05;;;1.70;99.90;;;;;;5046838;28;20060;-77
2023/11/22 11:55:13;;;;;;;12.90;7.63;;;1.60;99.90;;;;;;5045685;28;20466;-78
2023/11/22 11:57:41;;;;;;;11.10;6.75;;;1.50;99.90;;;;;;5052050;28;20029;-77
2023/11/22 12:00:09;;;;;;;10.98;6.68;;;1.50;99.90;;;;;;5039104;28;20051;-77
2023/11/22 12:02:37;;;;;;;13.65;8.13;;;1.40;99.90;;;;;;5039429;28;20107;-77
2023/11/22 12:05:08;;;;;;;14.20;7.57;;;1.40;99.90;;;;;;5040412;28;20645;-77
2023/11/22 12:07:35;;;;;;;14.32;7.88;;;1.40;99.90;;;;;;5040950;28;20095;-78
2023/11/22 12:10:01;;;;;;;11.73;7.00;;;1.40;99.90;;;;;;5040801;28;20044;-77
2023/11/22 12:12:28;;;;;;;14.07;7.88;;;1.40;99.90;;;;;;5035053;28;20044;-78
2023/11/22 12:14:56;;;;;;;12.18;7.75;;;1.40;99.90;;;;;;5030405;28;20087;-78
2023/11/22 12:17:22;;;;;;;13.02;8.63;;;1.50;99.90;;;;;;5037381;28;20124;-77
2023/11/22 12:19:48;;;;;;;15.77;8.73;;;1.50;99.90;;;;;;5044624;28;20025;-79
2023/11/22 12:22:16;;;;;;;15.43;8.60;;;1.50;99.90;;;;;;5045201;28;20080;-77
2023/11/22 12:24:45;;;;;;;15.20;8.55;;;1.50;99.90;;;;;;5045054;28;20115;-78
2023/11/22 12:27:11;;;;;;;15.27;8.75;;;1.50;99.90;;;;;;5047121;28;20458;-79
2023/11/22 12:29:37;;;;;;;15.38;8.18;;;1.50;99.90;;;;;;5043402;28;20112;-78
2023/11/22 12:32:03;;;;;;;14.10;8.23;;;1.50;99.90;;;;;;5048268;28;20052;-77
2023/11/22 12:34:30;;;;;;;15.02;8.93;;;1.50;99.90;;;;;;5034065;28;20067;-77
2023/11/22 12:36:56;;;;;;;13.68;7.95;;;1.50;99.90;;;;;;5042350;28;20021;-79
2023/11/22 12:39:23;;;;;;;13.68;8.18;;;1.50;99.90;;;;;;5044530;28;20602;-77
2023/11/22 12:41:50;;;;;;;13.00;7.47;;;1.50;99.90;;;;;;5043424;28;20025;-77
2023/11/22 12:44:22;;;;;;;12.98;7.78;;;1.60;99.90;;;;;;5045030;28;20737;-78
2023/11/22 12:47:01;;;;;;;12.80;7.75;;;1.60;99.90;;;;;;5039888;28;20528;-78